Time;durP1;ratioP1;P1;durP2;ratioP2;P2;SDS_P1;SDS_P2;PMS_P1;PMS_P2;Temp;Humidity;BMP_temperature;BMP_pressure;BME280_temperature;BME280_humidity;BME280_pressure;Samples;Min_cycle;Max_cycle;Signal;HPM_P1;HPM_P2
2021/11/18 00:00:45;;;;;;;10.23;9.20;;;5.90;1.00;;;;;;5036907;28;20250;-84
2021/11/18 00:03:11;;;;;;;13.17;10.27;;;;;;;;;;5027974;28;20309;-85
2021/11/18 00:05:37;;;;;;;10.83;9.70;;;5.90;1.00;;;;;;5042148;28;20199;-85
2021/11/18 00:08:05;;;;;;;11.57;9.50;;;5.90;1.00;;;;;;5042214;28;20215;-84
2021/11/18 00:10:34;;;;;;;11.83;10.60;;;5.90;1.00;;;;;;5039393;28;20208;-84
2021/11/18 00:13:03;;;;;;;12.07;9.80;;;5.90;1.00;;;;;;5034150;28;20283;-84
2021/11/18 00:15:31;;;;;;;10.50;9.50;;;5.80;1.00;;;;;;5032473;28;20218;-85
2021/11/18 00:17:59;;;;;;;15.60;10.07;;;5.80;1.00;;;;;;5040545;28;20372;-84
2021/11/18 00:20:27;;;;;;;10.73;9.63;;;3.60;1.00;;;;;;5035841;28;20224;-85
2021/11/18 00:22:53;;;;;;;11.50;9.93;;;5.70;1.00;;;;;;5038709;28;20268;-85
2021/11/18 00:25:19;;;;;;;10.73;9.63;;;7.70;1.00;;;;;;5028784;28;20193;-84
2021/11/18 00:27:44;;;;;;;14.60;10.37;;;5.70;1.00;;;;;;5035245;28;20195;-84
2021/11/18 00:30:12;;;;;;;13.80;10.20;;;5.60;1.00;;;;;;5038878;28;20204;-85
2021/11/18 00:32:38;;;;;;;12.87;9.87;;;5.60;1.00;;;;;;5041846;28;20199;-84
2021/11/18 00:35:05;;;;;;;11.33;10.07;;;5.60;1.00;;;;;;5037077;28;20200;-84
2021/11/18 00:37:30;;;;;;;11.50;9.50;;;5.60;1.00;;;;;;5028304;28;20194;-85
2021/11/18 00:39:57;;;;;;;9.80;8.80;;;5.60;1.00;;;;;;5038088;28;20221;-85
2021/11/18 00:42:23;;;;;;;11.50;10.30;;;;;;;;;;5040865;28;20179;-85
2021/11/18 00:44:49;;;;;;;11.97;10.17;;;;;;;;;;5032579;28;20286;-85
2021/11/18 00:47:15;;;;;;;11.23;10.13;;;5.50;1.00;;;;;;5046234;28;20222;-85
2021/11/18 00:49:41;;;;;;;12.97;9.70;;;;;;;;;;5039731;28;20211;-84
2021/11/18 00:52:07;;;;;;;13.23;10.57;;;5.50;1.00;;;;;;5037498;28;20213;-85
2021/11/18 00:54:32;;;;;;;12.27;9.40;;;5.50;1.00;;;;;;5036399;28;20223;-85
2021/11/18 00:56:58;;;;;;;14.67;11.23;;;5.60;1.00;;;;;;5042127;28;20635;-85
2021/11/18 00:59:24;;;;;;;11.50;10.30;;;5.60;1.00;;;;;;5042720;28;20640;-84
2021/11/18 01:01:52;;;;;;;11.47;10.10;;;5.70;1.00;;;;;;5041465;28;20264;-85
2021/11/18 01:04:19;;;;;;;12.27;9.73;;;5.60;1.00;;;;;;5041037;28;20179;-85
2021/11/18 01:06:46;;;;;;;11.03;9.90;;;5.60;1.00;;;;;;5034872;28;20245;-85
2021/11/18 01:09:12;;;;;;;10.43;9.30;;;5.60;1.00;;;;;;5033980;28;20199;-85
2021/11/18 01:11:38;;;;;;;11.23;9.33;;;5.50;1.00;;;;;;5038557;28;20187;-84
2021/11/18 01:14:08;;;;;;;12.00;9.90;;;5.50;1.00;;;;;;5041092;28;20253;-84
2021/11/18 01:16:36;;;;;;;11.10;9.97;;;5.60;1.00;;;;;;5035656;28;20238;-84
2021/11/18 01:19:04;;;;;;;10.70;8.80;;;5.50;1.00;;;;;;5041016;28;20222;-85
2021/11/18 01:21:29;;;;;;;10.30;8.90;;;5.50;1.00;;;;;;5036136;28;20196;-84
2021/11/18 01:23:55;;;;;;;11.73;10.10;;;5.50;1.00;;;;;;5034471;28;20195;-84
2021/11/18 01:26:21;;;;;;;11.30;9.80;;;5.50;1.00;;;;;;5036716;28;20221;-85
2021/11/18 01:28:48;;;;;;;11.40;9.63;;;7.20;1.00;;;;;;5043900;28;20187;-85
2021/11/18 01:31:14;;;;;;;14.43;10.43;;;5.50;1.00;;;;;;5036800;28;20860;-85
2021/11/18 01:33:40;;;;;;;12.63;9.90;;;5.50;1.00;;;;;;5037492;28;20194;-85
2021/11/18 01:36:07;;;;;;;14.83;10.43;;;5.50;1.00;;;;;;5038833;28;20881;-85
2021/11/18 01:38:33;;;;;;;12.50;11.00;;;5.60;1.00;;;;;;5043957;28;20226;-84
2021/11/18 01:41:07;;;;;;;13.07;10.70;;;5.60;1.00;;;;;;5040261;28;20196;-84
2021/11/18 01:43:40;;;;;;;12.37;10.20;;;5.60;1.00;;;;;;5026188;28;20282;-84
2021/11/18 01:46:09;;;;;;;12.33;10.13;;;5.50;1.00;;;;;;5050535;28;20645;-85
2021/11/18 01:48:35;;;;;;;11.13;9.93;;;5.50;1.00;;;;;;5036760;28;20211;-85
2021/11/18 01:51:03;;;;;;;12.00;10.50;;;5.50;1.00;;;;;;5039922;28;20225;-85
2021/11/18 01:53:36;;;;;;;12.83;11.03;;;5.40;1.00;;;;;;5039021;28;20202;-84
2021/11/18 01:56:11;;;;;;;13.03;10.17;;;5.40;1.00;;;;;;5036259;28;20202;-85
2021/11/18 01:58:39;;;;;;;12.00;10.70;;;5.40;1.00;;;;;;5043874;28;20213;-84
2021/11/18 02:01:07;;;;;;;14.50;11.73;;;5.40;1.00;;;;;;5033724;28;20200;-85
2021/11/18 02:03:34;;;;;;;14.17;10.37;;;;;;;;;;5041502;28;20223;-85
2021/11/18 02:06:07;;;;;;;13.70;10.87;;;5.50;1.00;;;;;;5042011;28;20216;-84
2021/11/18 02:08:33;;;;;;;14.50;11.47;;;6.20;1.00;;;;;;5038634;28;20201;-85
2021/11/18 02:11:05;;;;;;;13.27;11.83;;;5.50;1.00;;;;;;5038110;28;20196;-84
2021/11/18 02:13:31;;;;;;;13.83;12.33;;;5.40;1.00;;;;;;5033303;28;20204;-85
2021/11/18 02:15:59;;;;;;;13.37;10.67;;;5.50;1.00;;;;;;5042505;28;20191;-85
2021/11/18 02:18:28;;;;;;;15.30;11.10;;;5.60;1.00;;;;;;5043540;28;20221;-85
2021/11/18 02:21:07;;;;;;;14.07;10.93;;;5.50;1.00;;;;;;5040359;28;20704;-85
2021/11/18 02:23:38;;;;;;;15.60;11.13;;;5.50;1.00;;;;;;5042527;28;20202;-85
2021/11/18 02:26:04;;;;;;;15.03;10.80;;;5.60;1.00;;;;;;5035592;28;20217;-85
2021/11/18 02:28:33;;;;;;;13.77;11.20;;;5.50;1.00;;;;;;5038663;28;20195;-85
2021/11/18 02:31:01;;;;;;;14.67;11.10;;;5.50;1.00;;;;;;5039086;28;20202;-84
2021/11/18 02:33:27;;;;;;;13.07;10.60;;;5.50;1.00;;;;;;5041706;28;20251;-85
2021/11/18 02:35:56;;;;;;;14.30;11.47;;;5.40;1.00;;;;;;5044124;28;20201;-85
2021/11/18 02:38:22;;;;;;;13.90;10.77;;;5.40;1.00;;;;;;5043745;28;20212;-85
2021/11/18 02:40:48;;;;;;;14.37;11.80;;;7.00;1.00;;;;;;5041488;28;20213;-85
2021/11/18 02:43:17;;;;;;;17.53;11.13;;;5.70;1.00;;;;;;5038695;28;20194;-84
2021/11/18 02:45:46;;;;;;;15.70;11.47;;;5.30;1.00;;;;;;5045153;28;20187;-85
2021/11/18 02:48:13;;;;;;;14.10;11.40;;;5.30;1.00;;;;;;5042746;28;20198;-85
2021/11/18 02:50:44;;;;;;;12.07;10.27;;;5.30;1.00;;;;;;5037698;28;20177;-85
2021/11/18 02:53:10;;;;;;;14.47;10.47;;;;;;;;;;5040767;28;20215;-84
2021/11/18 02:55:40;;;;;;;13.33;10.40;;;5.20;1.00;;;;;;5040555;28;20192;-84
2021/11/18 02:58:06;;;;;;;15.17;11.07;;;5.20;1.00;;;;;;5032611;28;20210;-84
2021/11/18 03:00:55;;;;;;;14.60;10.40;;;5.10;1.00;;;;;;5041017;28;20279;-84
2021/11/18 03:03:24;;;;;;;15.23;10.57;;;5.20;1.00;;;;;;5038493;28;20196;-84
2021/11/18 03:05:50;;;;;;;15.33;10.63;;;;;;;;;;5039315;28;20191;-85
2021/11/18 03:08:16;;;;;;;13.97;11.70;;;5.10;1.00;;;;;;5036952;28;20623;-84
2021/11/18 03:10:43;;;;;;;17.17;11.50;;;5.10;1.00;;;;;;5034836;28;20192;-84
2021/11/18 03:13:09;;;;;;;13.90;10.00;;;5.90;1.00;;;;;;5043128;28;20190;-84
2021/11/18 03:15:35;;;;;;;13.30;10.80;;;5.00;1.00;;;;;;5032993;28;20212;-85
2021/11/18 03:18:00;;;;;;;14.83;10.53;;;5.00;1.00;;;;;;5042764;28;20666;-84
2021/11/18 03:20:28;;;;;;;16.07;12.10;;;5.00;1.00;;;;;;5041064;28;20188;-85
2021/11/18 03:22:55;;;;;;;13.53;11.43;;;5.00;1.00;;;;;;5037300;28;20217;-84
2021/11/18 03:25:25;;;;;;;13.50;11.27;;;5.00;1.00;;;;;;5035280;28;20188;-85
2021/11/18 03:27:51;;;;;;;13.60;11.07;;;;;;;;;;5037031;28;20186;-85
2021/11/18 03:30:22;;;;;;;12.83;11.37;;;5.00;1.00;;;;;;5040723;28;20201;-85
2021/11/18 03:32:50;;;;;;;16.57;11.20;;;5.00;1.00;;;;;;5036358;28;20197;-85
2021/11/18 03:35:16;;;;;;;11.67;9.70;;;5.00;1.00;;;;;;5040681;28;20227;-85
2021/11/18 03:37:41;;;;;;;13.20;10.80;;;6.70;1.00;;;;;;5039045;28;20224;-85
2021/11/18 03:40:08;;;;;;;13.87;11.00;;;5.00;1.00;;;;;;5034381;28;20214;-85
2021/11/18 03:42:33;;;;;;;13.77;11.30;;;5.00;1.00;;;;;;5038045;28;20200;-83
2021/11/18 03:44:59;;;;;;;14.53;11.47;;;4.90;1.00;;;;;;5039853;28;20184;-84
2021/11/18 03:47:25;;;;;;;12.87;10.97;;;4.90;1.00;;;;;;5041823;28;20184;-83
2021/11/18 03:49:51;;;;;;;11.90;10.50;;;6.20;1.00;;;;;;5038014;28;20235;-84
2021/11/18 03:52:18;;;;;;;16.37;11.87;;;4.90;1.00;;;;;;5037941;28;20802;-83
2021/11/18 03:54:45;;;;;;;13.43;11.67;;;4.90;1.00;;;;;;5041086;28;20192;-84
2021/11/18 03:57:11;;;;;;;13.43;11.27;;;;;;;;;;5033481;28;20204;-83
2021/11/18 03:59:40;;;;;;;14.07;11.30;;;4.90;1.00;;;;;;5028030;28;20223;-83
2021/11/18 04:02:06;;;;;;;17.20;11.63;;;5.10;1.00;;;;;;5035732;28;20672;-84
2021/11/18 04:04:38;;;;;;;17.27;12.13;;;5.10;1.00;;;;;;5039188;28;20198;-84
2021/11/18 04:07:05;;;;;;;14.43;11.47;;;5.10;1.00;;;;;;5031863;28;20217;-85
2021/11/18 04:09:31;;;;;;;17.40;12.67;;;5.10;1.00;;;;;;5040401;28;20202;-84
2021/11/18 04:12:00;;;;;;;13.47;11.53;;;5.20;1.00;;;;;;5038155;28;20189;-84
2021/11/18 04:14:31;;;;;;;16.43;11.23;;;5.40;1.00;;;;;;5035186;28;20245;-84
2021/11/18 04:16:57;;;;;;;15.07;12.40;;;5.40;1.00;;;;;;5035926;28;20199;-84
2021/11/18 04:19:23;;;;;;;13.70;11.50;;;5.40;1.00;;;;;;5036734;28;20245;-85
2021/11/18 04:21:51;;;;;;;18.13;12.13;;;5.40;1.00;;;;;;5021616;28;20199;-85
2021/11/18 04:24:24;;;;;;;16.20;12.37;;;5.40;1.00;;;;;;5040484;28;20880;-85
2021/11/18 04:26:50;;;;;;;14.50;12.20;;;5.60;1.00;;;;;;5036400;28;20201;-85
2021/11/18 04:29:17;;;;;;;15.03;11.83;;;5.50;1.00;;;;;;5038427;28;20198;-85
2021/11/18 04:31:43;;;;;;;16.67;12.20;;;5.40;1.00;;;;;;5040891;28;20208;-85
2021/11/18 04:34:10;;;;;;;18.33;11.57;;;5.40;1.00;;;;;;5035340;28;20191;-84
2021/11/18 04:36:41;;;;;;;13.60;11.77;;;7.00;1.00;;;;;;5037571;28;20194;-85
2021/11/18 04:39:08;;;;;;;14.43;12.03;;;;;;;;;;5039895;28;20207;-85
2021/11/18 04:41:34;;;;;;;15.87;12.30;;;;;;;;;;5040198;28;20186;-85
2021/11/18 04:44:00;;;;;;;14.80;11.80;;;5.40;1.00;;;;;;5027844;28;20193;-85
2021/11/18 04:46:26;;;;;;;18.87;12.20;;;;;;;;;;5046394;28;20610;-85
2021/11/18 04:48:52;;;;;;;16.10;11.80;;;5.50;1.00;;;;;;5040401;28;20196;-85
2021/11/18 04:51:21;;;;;;;14.77;12.10;;;5.50;1.00;;;;;;5038335;28;20201;-84
2021/11/18 04:53:48;;;;;;;13.40;10.83;;;5.50;1.00;;;;;;5040965;28;20196;-85
2021/11/18 04:56:14;;;;;;;16.87;12.43;;;5.50;1.00;;;;;;5034826;28;20273;-84
2021/11/18 04:58:41;;;;;;;15.57;12.87;;;5.40;1.00;;;;;;5036292;28;20243;-84
2021/11/18 05:01:08;;;;;;;19.13;12.60;;;5.50;1.00;;;;;;5036613;28;20257;-85
2021/11/18 05:03:34;;;;;;;17.83;13.37;;;8.80;1.00;;;;;;5035660;28;20197;-85
2021/11/18 05:06:01;;;;;;;20.93;12.93;;;5.50;1.00;;;;;;5036186;28;20188;-85
2021/11/18 05:08:26;;;;;;;15.47;12.23;;;5.40;1.00;;;;;;5040177;28;20612;-84
2021/11/18 05:10:53;;;;;;;20.17;13.57;;;5.80;1.00;;;;;;5040881;28;20190;-84
2021/11/18 05:13:24;;;;;;;20.13;13.43;;;5.60;1.00;;;;;;5038458;28;20202;-85
2021/11/18 05:15:50;;;;;;;22.43;13.43;;;5.50;1.00;;;;;;5037273;28;20245;-85
2021/11/18 05:18:17;;;;;;;14.67;13.07;;;7.00;1.00;;;;;;5036721;28;20203;-85
2021/11/18 05:20:43;;;;;;;16.23;13.10;;;5.80;1.00;;;;;;5037742;28;20197;-85
2021/11/18 05:23:11;;;;;;;14.97;12.57;;;5.50;1.00;;;;;;5038928;28;20189;-85
2021/11/18 05:25:37;;;;;;;19.93;13.63;;;5.50;1.00;;;;;;5036291;28;20201;-84
2021/11/18 05:28:04;;;;;;;17.37;13.07;;;5.60;1.00;;;;;;5035966;28;20186;-86
2021/11/18 05:30:33;;;;;;;16.67;13.80;;;5.60;1.00;;;;;;5037075;28;20281;-85
2021/11/18 05:33:01;;;;;;;16.43;13.23;;;5.50;1.00;;;;;;5043237;28;20218;-85
2021/11/18 05:35:29;;;;;;;17.77;14.13;;;5.60;1.00;;;;;;5036255;28;20196;-84
2021/11/18 05:37:55;;;;;;;18.57;14.07;;;5.60;1.00;;;;;;5044297;28;20188;-86
2021/11/18 05:40:22;;;;;;;19.37;13.13;;;5.60;1.00;;;;;;5031842;28;20295;-85
2021/11/18 05:42:48;;;;;;;15.70;13.90;;;5.60;1.00;;;;;;5037511;28;20216;-85
2021/11/18 05:45:18;;;;;;;18.83;14.67;;;5.50;1.00;;;;;;5041883;28;20197;-83
2021/11/18 05:47:44;;;;;;;17.67;13.60;;;5.50;1.00;;;;;;5043552;28;20201;-85
2021/11/18 05:50:12;;;;;;;16.80;13.60;;;5.60;1.00;;;;;;5037392;28;20187;-86
2021/11/18 05:52:38;;;;;;;14.90;12.67;;;;;;;;;;5031586;28;20579;-87
2021/11/18 05:55:06;;;;;;;15.90;12.60;;;5.60;1.00;;;;;;5040357;28;20197;-85
2021/11/18 05:57:31;;;;;;;17.27;13.07;;;5.70;1.00;;;;;;5040199;28;20262;-84
2021/11/18 05:59:58;;;;;;;12.80;11.47;;;;;;;;;;5038289;28;22187;-85
2021/11/18 06:02:23;;;;;;;16.47;12.30;;;5.70;1.00;;;;;;5040310;28;20202;-86
2021/11/18 06:04:49;;;;;;;14.10;11.50;;;5.70;1.00;;;;;;5034576;28;20194;-86
2021/11/18 06:07:15;;;;;;;21.77;11.23;;;5.60;1.00;;;;;;5041489;28;20234;-86
2021/11/18 06:09:41;;;;;;;12.50;11.20;;;;;;;;;;5041950;28;20211;-85
2021/11/18 06:12:09;;;;;;;12.60;10.23;;;5.40;1.00;;;;;;5035728;28;20187;-86
2021/11/18 06:14:35;;;;;;;12.87;10.33;;;5.40;1.00;;;;;;5041234;28;20198;-85
2021/11/18 06:17:01;;;;;;;16.13;10.47;;;5.40;1.00;;;;;;5044890;28;20222;-83
2021/11/18 06:19:27;;;;;;;14.17;11.20;;;5.30;1.00;;;;;;5040740;28;22150;-84
2021/11/18 06:21:54;;;;;;;13.13;10.20;;;5.30;1.00;;;;;;5037609;28;20215;-86
2021/11/18 06:24:22;;;;;;;12.90;11.07;;;5.30;1.00;;;;;;5029253;28;20513;-86
2021/11/18 06:26:50;;;;;;;13.50;10.63;;;5.30;1.00;;;;;;5035790;28;20186;-86
2021/11/18 06:29:20;;;;;;;15.80;11.30;;;5.30;1.00;;;;;;5041556;28;20685;-86
2021/11/18 06:31:52;;;;;;;14.67;10.43;;;5.30;1.00;;;;;;5036689;28;20240;-86
2021/11/18 06:34:18;;;;;;;17.67;11.73;;;5.20;1.00;;;;;;5042504;28;20650;-86
2021/11/18 06:36:45;;;;;;;15.00;11.17;;;5.20;1.00;;;;;;5033577;28;20197;-86
2021/11/18 06:39:13;;;;;;;14.47;11.10;;;5.30;1.00;;;;;;5039705;28;20209;-87
2021/11/18 06:41:39;;;;;;;13.73;10.07;;;5.30;1.00;;;;;;5040142;28;20239;-87
2021/11/18 06:44:05;;;;;;;15.77;11.83;;;5.30;1.00;;;;;;5038937;28;20193;-86
2021/11/18 06:46:32;;;;;;;18.57;11.67;;;;;;;;;;5040300;28;20619;-86
2021/11/18 06:48:59;;;;;;;14.13;12.00;;;5.30;1.00;;;;;;5038204;28;20206;-89
2021/11/18 06:51:25;;;;;;;20.07;12.53;;;8.20;1.00;;;;;;5033790;28;20194;-83
2021/11/18 06:53:54;;;;;;;14.57;11.83;;;8.00;1.00;;;;;;5028053;28;20196;-83
2021/11/18 06:56:24;;;;;;;20.30;12.47;;;5.30;1.00;;;;;;5038691;28;20192;-83
2021/11/18 06:58:50;;;;;;;14.30;12.17;;;5.30;1.00;;;;;;5040361;28;20704;-84
2021/11/18 07:01:16;;;;;;;17.33;12.30;;;;;;;;;;5036906;28;20198;-84
2021/11/18 07:03:42;;;;;;;14.63;13.00;;;5.40;1.00;;;;;;5035295;28;20200;-83
2021/11/18 07:06:11;;;;;;;16.37;12.97;;;5.50;1.00;;;;;;5032143;28;20594;-83
2021/11/18 07:08:37;;;;;;;15.73;13.00;;;5.50;1.00;;;;;;5035822;28;20200;-83
2021/11/18 07:11:05;;;;;;;21.10;13.83;;;5.50;1.00;;;;;;5032321;28;20191;-82
2021/11/18 07:13:34;;;;;;;19.07;13.90;;;5.50;1.00;;;;;;5036982;28;21183;-83
2021/11/18 07:16:05;;;;;;;16.03;13.70;;;5.50;1.00;;;;;;5037119;28;20207;-83
2021/11/18 07:18:31;;;;;;;17.27;14.00;;;5.50;1.00;;;;;;5032788;28;20254;-82
2021/11/18 07:20:57;;;;;;;20.43;14.40;;;5.40;1.00;;;;;;5045589;28;20197;-83
2021/11/18 07:23:24;;;;;;;17.77;13.20;;;7.10;1.00;;;;;;5037693;28;20475;-83
2021/11/18 07:25:53;;;;;;;26.17;14.07;;;5.30;1.00;;;;;;5041514;28;20200;-83
2021/11/18 07:28:21;;;;;;;21.47;14.50;;;5.40;1.00;;;;;;5042597;28;20227;-83
2021/11/18 07:30:47;;;;;;;20.20;12.80;;;5.40;1.00;;;;;;5036724;28;20191;-83
2021/11/18 07:33:17;;;;;;;18.77;14.50;;;5.50;1.00;;;;;;5044905;28;20195;-82
2021/11/18 07:35:43;;;;;;;20.70;13.43;;;5.40;1.00;;;;;;5037367;28;20201;-83
2021/11/18 07:38:10;;;;;;;16.70;14.13;;;5.40;1.00;;;;;;5022964;28;20209;-83
2021/11/18 07:40:37;;;;;;;18.80;13.77;;;5.40;1.00;;;;;;5040243;28;20322;-82
2021/11/18 07:43:09;;;;;;;17.87;14.63;;;5.40;1.00;;;;;;5042678;28;20549;-82
2021/11/18 07:45:35;;;;;;;17.27;13.03;;;5.40;1.00;;;;;;5035869;28;20206;-82
2021/11/18 07:48:00;;;;;;;18.10;14.30;;;5.40;1.00;;;;;;5037936;28;20198;-82
2021/11/18 07:50:26;;;;;;;17.27;13.87;;;5.50;1.00;;;;;;5032955;28;20201;-81
2021/11/18 07:52:52;;;;;;;23.17;14.37;;;6.90;1.00;;;;;;5034911;28;20743;-82
2021/11/18 07:55:21;;;;;;;19.13;14.70;;;5.60;1.00;;;;;;5039525;28;20193;-82
2021/11/18 07:57:47;;;;;;;16.30;13.47;;;5.60;1.00;;;;;;5040834;28;20207;-83
2021/11/18 08:00:17;;;;;;;17.20;13.77;;;5.70;1.00;;;;;;5036728;28;20218;-82
2021/11/18 08:02:44;;;;;;;16.17;13.37;;;5.70;1.00;;;;;;5037324;28;20186;-83
2021/11/18 08:05:11;;;;;;;19.00;14.97;;;6.90;1.00;;;;;;5040717;28;20187;-82
2021/11/18 08:07:36;;;;;;;19.40;14.40;;;5.80;1.00;;;;;;5054629;28;20300;-82
2021/11/18 08:10:05;;;;;;;18.87;14.63;;;6.20;1.00;;;;;;5039337;28;20218;-82
2021/11/18 08:12:34;;;;;;;19.73;14.40;;;5.60;1.00;;;;;;5033731;28;20223;-83
2021/11/18 08:15:00;;;;;;;21.87;15.60;;;5.60;1.00;;;;;;5034150;28;20186;-82
2021/11/18 08:17:25;;;;;;;17.80;14.93;;;5.70;1.00;;;;;;5035845;28;20206;-84
2021/11/18 08:19:51;;;;;;;20.13;15.60;;;5.70;1.00;;;;;;5036764;28;20214;-83
2021/11/18 08:22:17;;;;;;;20.40;14.97;;;5.80;1.00;;;;;;5034931;28;20184;-83
2021/11/18 08:24:43;;;;;;;19.20;15.40;;;5.70;1.00;;;;;;5037634;28;20186;-83
2021/11/18 08:27:09;;;;;;;18.77;14.60;;;5.80;1.00;;;;;;5040828;28;20245;-83
2021/11/18 08:29:35;;;;;;;20.80;16.43;;;5.80;1.00;;;;;;5037551;28;20195;-83
2021/11/18 08:32:02;;;;;;;19.63;15.53;;;7.00;1.00;;;;;;5032813;28;20277;-83
2021/11/18 08:34:28;;;;;;;16.23;13.33;;;6.10;1.00;;;;;;5041936;28;20201;-83
2021/11/18 08:36:54;;;;;;;14.13;12.63;;;6.00;1.00;;;;;;5037249;28;20202;-82
2021/11/18 08:39:22;;;;;;;15.83;13.37;;;5.90;1.00;;;;;;5032155;28;20218;-84
2021/11/18 08:41:51;;;;;;;17.73;13.73;;;8.70;1.00;;;;;;5035936;28;20191;-82
2021/11/18 08:44:17;;;;;;;14.87;12.67;;;;;;;;;;5038300;28;20186;-82
2021/11/18 08:46:44;;;;;;;14.97;12.63;;;5.90;1.00;;;;;;5033626;28;20256;-83
2021/11/18 08:49:11;;;;;;;16.03;13.70;;;;;;;;;;5037681;28;20239;-82
2021/11/18 08:51:36;;;;;;;17.07;13.33;;;6.00;1.00;;;;;;5028383;28;20655;-83
2021/11/18 08:54:09;;;;;;;17.53;13.90;;;6.00;1.00;;;;;;5035323;28;20214;-83
2021/11/18 08:56:36;;;;;;;18.27;14.30;;;6.10;1.00;;;;;;5025244;28;20249;-81
2021/11/18 08:59:04;;;;;;;17.43;13.80;;;6.30;1.00;;;;;;5035181;28;20223;-84
2021/11/18 09:01:54;;;;;;;20.27;13.90;;;6.10;1.00;;;;;;5037277;28;20611;-82
2021/11/18 09:04:22;;;;;;;17.27;14.13;;;6.10;1.00;;;;;;5034344;28;20292;-82
2021/11/18 09:06:49;;;;;;;18.77;14.67;;;6.10;1.00;;;;;;5043361;28;20216;-82
2021/11/18 09:09:18;;;;;;;15.10;13.23;;;6.00;1.00;;;;;;5041098;28;20580;-83
2021/11/18 09:11:45;;;;;;;17.97;14.50;;;6.10;1.00;;;;;;5039403;28;20205;-83
2021/11/18 09:14:11;;;;;;;19.33;13.60;;;;;;;;;;5028881;28;20206;-82
2021/11/18 09:16:39;;;;;;;17.73;13.80;;;6.30;1.00;;;;;;5027650;28;20667;-82
2021/11/18 09:19:08;;;;;;;18.27;15.57;;;6.40;1.00;;;;;;5041814;28;20211;-83
2021/11/18 09:21:35;;;;;;;17.43;14.90;;;6.40;1.00;;;;;;5037015;28;20277;-83
2021/11/18 09:24:26;;;;;;;20.40;15.10;;;7.30;1.00;;;;;;5040468;28;20191;-83
2021/11/18 09:27:01;;;;;;;17.90;15.23;;;6.70;1.00;;;;;;5040067;28;20196;-83
2021/11/18 09:29:28;;;;;;;17.27;14.03;;;6.80;1.00;;;;;;5034288;28;20199;-84
2021/11/18 09:31:58;;;;;;;15.47;13.37;;;6.70;1.00;;;;;;5041559;28;20206;-83
2021/11/18 09:34:25;;;;;;;16.90;13.83;;;6.70;1.00;;;;;;5035243;28;20958;-83
2021/11/18 09:36:51;;;;;;;17.53;13.20;;;;;;;;;;5037218;28;20196;-84
2021/11/18 09:39:17;;;;;;;15.57;13.23;;;6.70;1.00;;;;;;5042058;28;20214;-83
2021/11/18 09:41:51;;;;;;;16.57;13.03;;;6.80;1.00;;;;;;5039083;28;20191;-83
2021/11/18 09:44:32;;;;;;;21.63;12.70;;;6.90;1.00;;;;;;5042778;28;20290;-82
2021/11/18 09:47:06;;;;;;;17.73;12.90;;;6.70;1.00;;;;;;5033323;28;20198;-82
2021/11/18 09:50:14;;;;;;;15.60;12.13;;;6.80;1.00;;;;;;5040671;28;20202;-83
2021/11/18 09:52:46;;;;;;;14.77;12.03;;;6.90;1.00;;;;;;5042062;28;20247;-83
2021/11/18 09:55:19;;;;;;;12.67;11.37;;;7.10;1.00;;;;;;5027366;28;20191;-82
2021/11/18 09:57:47;;;;;;;11.50;10.33;;;7.20;1.00;;;;;;5053565;28;20191;-83
2021/11/18 10:00:30;;;;;;;16.23;11.77;;;7.60;1.00;;;;;;5038269;28;20225;-83
2021/11/18 10:03:20;;;;;;;14.60;11.40;;;7.60;1.00;;;;;;5040223;28;20211;-82
2021/11/18 10:06:13;;;;;;;11.67;10.47;;;7.30;1.00;;;;;;5029584;28;20266;-83
2021/11/18 10:09:10;;;;;;;15.77;12.70;;;7.30;1.00;;;;;;5041251;28;20198;-83
2021/11/18 10:12:13;;;;;;;12.97;11.60;;;7.30;1.00;;;;;;5037009;28;20202;-83
2021/11/18 10:14:51;;;;;;;15.60;12.57;;;7.20;1.00;;;;;;5034657;28;20647;-85
2021/11/18 10:17:19;;;;;;;16.00;12.00;;;7.10;1.00;;;;;;5051710;28;20195;-84
2021/11/18 10:20:13;;;;;;;16.47;11.57;;;7.10;1.00;;;;;;5038518;28;20234;-84
2021/11/18 10:22:49;;;;;;;15.10;11.17;;;7.30;1.00;;;;;;5006421;28;20218;-84
2021/11/18 10:25:20;;;;;;;13.17;10.93;;;7.30;1.00;;;;;;5035818;28;20175;-84
2021/11/18 10:27:58;;;;;;;14.03;11.10;;;7.30;1.00;;;;;;5032240;28;20282;-84
2021/11/18 10:30:42;;;;;;;17.00;11.07;;;9.10;1.00;;;;;;5034746;28;20727;-84
2021/11/18 10:33:24;;;;;;;16.07;10.97;;;7.40;1.00;;;;;;5034643;28;20275;-84
2021/11/18 10:36:11;;;;;;;12.13;10.80;;;7.40;1.00;;;;;;5031082;28;20203;-83
2021/11/18 10:38:42;;;;;;;13.20;10.63;;;7.70;1.00;;;;;;5035568;28;20217;-83
2021/11/18 10:41:21;;;;;;;16.80;10.80;;;7.70;1.00;;;;;;5040402;28;20636;-84
2021/11/18 10:44:06;;;;;;;11.60;10.40;;;7.70;1.00;;;;;;5041558;28;20191;-84
2021/11/18 10:46:39;;;;;;;17.77;12.93;;;7.60;1.00;;;;;;5037293;28;20195;-84
2021/11/18 10:49:11;;;;;;;15.07;11.87;;;7.70;1.00;;;;;;5034328;28;20203;-84
2021/11/18 10:51:54;;;;;;;14.23;11.70;;;7.70;1.00;;;;;;5039030;28;20555;-84
2021/11/18 10:54:38;;;;;;;12.67;11.40;;;7.70;1.00;;;;;;5039590;28;20207;-83
2021/11/18 10:57:05;;;;;;;12.67;11.13;;;7.90;1.00;;;;;;5037201;28;20194;-84
2021/11/18 10:59:40;;;;;;;13.73;11.23;;;7.80;1.00;;;;;;5039093;28;20932;-84
2021/11/18 11:02:29;;;;;;;16.87;12.20;;;8.00;1.00;;;;;;5028166;28;20776;-84
2021/11/18 11:05:02;;;;;;;14.30;12.37;;;7.60;1.00;;;;;;5035131;28;20191;-83
2021/11/18 11:07:41;;;;;;;13.53;11.07;;;7.60;1.00;;;;;;5036229;28;20204;-83
2021/11/18 11:10:16;;;;;;;14.63;11.20;;;7.70;1.00;;;;;;5038491;28;20278;-82
2021/11/18 11:12:51;;;;;;;13.90;11.13;;;7.80;1.00;;;;;;5040840;28;20228;-82
2021/11/18 11:15:56;;;;;;;13.80;10.73;;;7.80;1.00;;;;;;5034289;28;20198;-83
2021/11/18 11:18:51;;;;;;;12.03;9.23;;;7.80;1.00;;;;;;5034097;28;20300;-84
2021/11/18 11:21:44;;;;;;;14.67;10.17;;;7.90;1.00;;;;;;5032492;28;20184;-84
2021/11/18 11:24:31;;;;;;;14.43;10.70;;;7.80;1.00;;;;;;5036150;28;20183;-83
2021/11/18 11:27:16;;;;;;;11.43;10.00;;;7.80;1.00;;;;;;5030445;28;20267;-83
2021/11/18 11:29:57;;;;;;;12.53;10.27;;;8.00;1.00;;;;;;5041762;28;20278;-84
2021/11/18 11:32:46;;;;;;;11.40;9.87;;;8.10;1.00;;;;;;5043150;28;20254;-83
2021/11/18 11:35:30;;;;;;;11.83;9.33;;;8.30;1.00;;;;;;5030005;28;20263;-83
2021/11/18 11:38:34;;;;;;;11.70;10.50;;;8.30;1.00;;;;;;5033027;28;20187;-83
2021/11/18 11:41:25;;;;;;;10.27;8.20;;;8.20;1.00;;;;;;5040589;28;20191;-83
2021/11/18 11:44:06;;;;;;;11.27;10.10;;;8.10;1.00;;;;;;5040894;28;20181;-83
2021/11/18 11:46:48;;;;;;;14.90;10.20;;;8.00;1.00;;;;;;5030765;28;20298;-83
2021/11/18 11:49:30;;;;;;;10.47;9.37;;;8.10;1.00;;;;;;5032840;28;20271;-84
2021/11/18 11:52:15;;;;;;;14.90;10.57;;;8.20;1.00;;;;;;5024688;28;20249;-84
2021/11/18 11:55:02;;;;;;;13.93;10.63;;;8.40;1.00;;;;;;5052586;28;20513;-84
2021/11/18 11:57:55;;;;;;;14.03;10.57;;;8.30;1.00;;;;;;5039344;28;20233;-84
2021/11/18 12:00:50;;;;;;;14.27;9.83;;;8.60;1.00;;;;;;5031661;28;20751;-84
2021/11/18 12:03:35;;;;;;;11.43;9.27;;;9.00;1.00;;;;;;5038139;28;20339;-84
2021/11/18 12:06:13;;;;;;;8.77;7.90;;;10.00;1.00;;;;;;5032267;28;20180;-83
2021/11/18 12:09:03;;;;;;;10.13;8.80;;;10.10;1.00;;;;;;5034347;28;20191;-83
2021/11/18 12:11:44;;;;;;;9.47;7.93;;;10.30;1.00;;;;;;5040765;28;20655;-85
2021/11/18 12:14:30;;;;;;;8.33;7.50;;;10.60;1.00;;;;;;5034534;28;20541;-86
2021/11/18 12:16:58;;;;;;;7.67;7.00;;;11.10;1.00;;;;;;5035392;28;20179;-84
2021/11/18 12:19:27;;;;;;;8.27;7.00;;;11.40;1.00;;;;;;5034341;28;20218;-84
2021/11/18 12:21:53;;;;;;;7.57;4.47;;;11.70;1.00;;;;;;5032117;28;20188;-84
2021/11/18 12:24:22;;;;;;;8.73;6.67;;;11.70;1.00;;;;;;5040567;28;20194;-82
2021/11/18 12:26:55;;;;;;;8.67;7.03;;;11.40;1.00;;;;;;5038980;28;20175;-83
2021/11/18 12:29:30;;;;;;;7.70;7.00;;;11.40;1.00;;;;;;5039303;28;20206;-83
2021/11/18 12:32:32;;;;;;;7.70;6.87;;;11.30;1.00;;;;;;5028067;28;20666;-84
2021/11/18 12:35:05;;;;;;;7.13;6.33;;;10.80;1.00;;;;;;5032019;28;20208;-83
2021/11/18 12:37:47;;;;;;;8.87;6.80;;;10.80;1.00;;;;;;5038153;28;20215;-84
2021/11/18 12:40:12;;;;;;;7.40;6.70;;;10.70;1.00;;;;;;5040495;28;20220;-83
2021/11/18 12:43:10;;;;;;;7.47;6.30;;;10.60;1.00;;;;;;5042308;28;20183;-83
2021/11/18 12:46:27;;;;;;;7.80;6.93;;;10.60;1.00;;;;;;5042937;28;20186;-83
2021/11/18 12:48:53;;;;;;;8.53;6.60;;;10.60;1.00;;;;;;4949083;29;20202;-84
2021/11/18 12:51:49;;;;;;;7.70;6.90;;;10.40;1.00;;;;;;4960388;29;20286;-83
2021/11/18 12:54:43;;;;;;;9.27;6.60;;;10.10;1.00;;;;;;5011837;28;20290;-84
2021/11/18 12:57:27;;;;;;;7.90;6.70;;;10.20;1.00;;;;;;5055940;28;20207;-83
2021/11/18 12:59:56;;;;;;;10.90;7.07;;;10.00;1.00;;;;;;5041025;28;20233;-83
2021/11/18 13:02:51;;;;;;;9.70;6.20;;;10.10;1.00;;;;;;5032955;28;20212;-83
2021/11/18 13:05:16;;;;;;;7.03;6.30;;;10.00;1.00;;;;;;5025635;28;20644;-84
2021/11/18 13:07:51;;;;;;;6.97;6.13;;;10.00;1.00;;;;;;5038521;28;20304;-84
2021/11/18 13:10:19;;;;;;;8.03;5.67;;;9.90;1.00;;;;;;5048078;28;20207;-85
2021/11/18 13:13:03;;;;;;;8.07;6.17;;;9.80;1.00;;;;;;5054830;28;20187;-82
2021/11/18 13:15:32;;;;;;;10.40;6.33;;;9.70;1.00;;;;;;5031823;28;20271;-83